createdAt,value
2018-09-29T00:01:42.419Z,72.56
2018-09-29T00:04:10.943Z,72.52
2018-09-29T00:06:39.414Z,72.25
2018-09-29T00:09:09.726Z,71.82
2018-09-29T00:11:38.166Z,71.25
2018-09-29T00:14:06.967Z,71.21
2018-09-29T00:16:35.595Z,71.21
2018-09-29T00:19:03.991Z,71.13
2018-09-29T00:21:32.519Z,71.74
2018-09-29T00:24:01.231Z,72.70
2018-09-29T00:26:29.854Z,72.74
2018-09-29T00:28:58.271Z,72.69
2018-09-29T00:31:26.842Z,73.88
2018-09-29T00:33:55.323Z,74.48
2018-09-29T00:36:23.719Z,74.70
2018-09-29T00:38:52.187Z,75.30
2018-09-29T00:41:20.640Z,76.13
2018-09-29T00:43:49.146Z,76.36
2018-09-29T00:46:17.645Z,76.13
2018-09-29T00:48:46.174Z,76.60
2018-09-29T00:51:14.582Z,77.54
2018-09-29T00:53:43.006Z,77.92
2018-09-29T00:56:11.555Z,78.03
2018-09-29T00:58:40.060Z,78.57
2018-09-29T01:01:08.511Z,78.76
2018-09-29T01:03:37.203Z,79.03
2018-09-29T01:06:05.791Z,78.99
2018-09-29T01:08:34.278Z,78.48
2018-09-29T01:11:02.806Z,79.05
2018-09-29T01:13:31.422Z,78.66
2018-09-29T01:15:59.886Z,78.26
2018-09-29T01:18:28.359Z,76.87
2018-09-29T01:20:56.766Z,75.09
2018-09-29T01:23:25.203Z,74.69
2018-09-29T01:25:53.667Z,74.76
2018-09-29T01:28:22.170Z,73.69
2018-09-29T01:30:50.685Z,73.58
2018-09-29T01:33:19.227Z,72.94
2018-09-29T01:35:47.686Z,72.62
2018-09-29T01:38:16.078Z,72.89
2018-09-29T01:40:44.637Z,71.55
2018-09-29T01:43:13.090Z,71.89
2018-09-29T01:45:41.583Z,71.86
2018-09-29T01:48:10.108Z,72.94
2018-09-29T01:50:38.558Z,72.38
2018-09-29T01:53:07.075Z,73.04
2018-09-29T01:55:35.623Z,72.84
2018-09-29T01:58:04.135Z,72.88
2018-09-29T02:00:32.659Z,71.77
2018-09-29T02:03:06.652Z,71.44
2018-09-29T02:05:35.069Z,71.12
2018-09-29T02:08:03.528Z,71.48
2018-09-29T02:10:31.991Z,71.24
2018-09-29T02:13:00.458Z,71.10
2018-09-29T02:15:28.898Z,72.84
2018-09-29T02:17:57.459Z,72.25
2018-09-29T02:20:25.919Z,73.19
2018-09-29T02:22:54.554Z,72.58
2018-09-29T02:25:23.083Z,72.20
2018-09-29T02:27:51.531Z,72.41
2018-09-29T02:30:20.407Z,73.07
2018-09-29T02:32:48.931Z,73.52
2018-09-29T02:35:17.370Z,73.44
2018-09-29T02:37:45.831Z,73.27
2018-09-29T02:40:14.319Z,72.83
2018-09-29T02:42:42.779Z,73.31
2018-09-29T02:45:11.352Z,73.80
2018-09-29T02:47:39.783Z,73.40
2018-09-29T02:50:08.363Z,72.78
2018-09-29T02:52:36.871Z,72.31
2018-09-29T02:55:05.999Z,72.01
2018-09-29T02:57:34.414Z,72.08
2018-09-29T03:00:02.863Z,72.42
2018-09-29T03:02:31.394Z,71.55
2018-09-29T03:05:00.535Z,72.09
2018-09-29T03:07:29.059Z,72.28
2018-09-29T03:09:57.612Z,71.85
2018-09-29T03:12:26.000Z,72.14
2018-09-29T03:14:54.475Z,72.25
2018-09-29T03:17:23.013Z,72.58
2018-09-29T03:19:51.578Z,72.87
2018-09-29T03:22:20.027Z,72.51
2018-09-29T03:24:48.547Z,72.50
2018-09-29T03:27:16.965Z,72.98
2018-09-29T03:29:45.500Z,72.49
2018-09-29T03:32:13.935Z,73.02
2018-09-29T03:34:42.371Z,72.96
2018-09-29T03:37:10.975Z,73.04
2018-09-29T03:39:39.767Z,72.68
2018-09-29T03:42:08.182Z,73.08
2018-09-29T03:44:36.655Z,73.49
2018-09-29T03:47:05.226Z,72.88
2018-09-29T03:49:33.746Z,73.04
2018-09-29T03:52:02.371Z,73.07
2018-09-29T03:54:31.012Z,73.08
2018-09-29T03:56:59.472Z,72.82
2018-09-29T03:59:28.052Z,73.11
2018-09-29T04:01:56.706Z,72.94
2018-09-29T04:04:25.439Z,72.21
2018-09-29T04:06:53.834Z,71.84
2018-09-29T04:09:22.416Z,72.46
2018-09-29T04:11:50.870Z,72.92
2018-09-29T04:14:19.411Z,73.33
2018-09-29T04:16:47.902Z,73.55
2018-09-29T04:19:16.369Z,74.83
2018-09-29T04:21:47.823Z,74.47
2018-09-29T04:24:17.407Z,73.97
2018-09-29T04:26:45.823Z,75.36
2018-09-29T04:29:15.885Z,76.03
2018-09-29T04:31:44.523Z,75.96
2018-09-29T04:34:13.883Z,76.72
2018-09-29T04:36:42.918Z,77.99
2018-09-29T04:39:12.895Z,78.70
2018-09-29T04:41:41.326Z,79.48
2018-09-29T04:44:10.595Z,79.65
2018-09-29T04:46:39.592Z,80.50
2018-09-29T04:49:08.345Z,80.77
2018-09-29T04:51:36.972Z,80.39
2018-09-29T04:54:05.458Z,80.87
2018-09-29T04:56:33.902Z,81.17
2018-09-29T04:59:02.430Z,81.06
2018-09-29T05:01:30.909Z,82.01
2018-09-29T05:03:59.470Z,81.39
2018-09-29T05:06:28.090Z,81.78
2018-09-29T05:08:56.667Z,81.54
2018-09-29T05:11:25.219Z,81.14
2018-09-29T05:13:53.745Z,81.35
2018-09-29T05:16:22.159Z,81.00
2018-09-29T05:18:50.718Z,82.47
2018-09-29T05:21:19.350Z,82.53
2018-09-29T05:23:47.986Z,82.42
2018-09-29T05:26:16.384Z,83.19
2018-09-29T05:28:45.644Z,82.67
2018-09-29T05:31:14.115Z,82.70
2018-09-29T05:33:42.566Z,82.31
2018-09-29T05:36:11.650Z,82.24
2018-09-29T05:38:40.402Z,82.50
2018-09-29T05:41:09.018Z,82.31
2018-09-29T05:43:37.738Z,81.17
2018-09-29T05:46:06.375Z,82.33
2018-09-29T05:48:34.895Z,81.82
2018-09-29T05:51:04.154Z,79.93
2018-09-29T05:53:32.698Z,79.99
2018-09-29T05:56:02.456Z,81.30
2018-09-29T05:58:31.367Z,82.70
2018-09-29T06:00:59.928Z,82.51
2018-09-29T06:03:28.511Z,82.17
2018-09-29T06:05:57.146Z,82.62
2018-09-29T06:08:27.240Z,82.83
2018-09-29T06:10:55.703Z,83.05
2018-09-29T06:13:24.612Z,82.93
2018-09-29T06:15:53.377Z,83.39
2018-09-29T06:18:21.919Z,82.05
2018-09-29T06:20:50.546Z,84.16
2018-09-29T06:23:19.040Z,82.63
2018-09-29T06:25:47.531Z,81.69
2018-09-29T06:28:16.028Z,81.43
2018-09-29T06:30:44.790Z,81.32
2018-09-29T06:33:14.104Z,80.08
2018-09-29T06:35:42.901Z,78.69
2018-09-29T06:38:11.603Z,77.02
2018-09-29T06:40:40.615Z,75.86
2018-09-29T06:43:09.210Z,75.96
2018-09-29T06:45:38.039Z,75.63
2018-09-29T06:48:06.517Z,75.07
2018-09-29T06:50:35.142Z,74.48
2018-09-29T06:53:03.680Z,74.44
2018-09-29T06:55:32.191Z,74.15
2018-09-29T06:58:00.859Z,73.89
2018-09-29T07:00:29.386Z,73.88
2018-09-29T07:02:57.882Z,73.53
2018-09-29T07:05:26.319Z,73.25
2018-09-29T07:07:55.231Z,73.15
2018-09-29T07:10:27.130Z,72.92
2018-09-29T07:12:55.806Z,72.75
2018-09-29T07:15:25.943Z,72.37
2018-09-29T07:17:54.470Z,72.61
2018-09-29T07:20:24.720Z,71.49
2018-09-29T07:22:53.335Z,71.38
2018-09-29T07:25:22.221Z,70.50
2018-09-29T07:27:50.928Z,70.73
2018-09-29T07:30:19.417Z,71.43
2018-09-29T07:32:48.183Z,71.35
2018-09-29T07:35:16.664Z,71.28
2018-09-29T07:37:45.224Z,70.68
2018-09-29T07:40:13.861Z,70.38
2018-09-29T07:42:42.400Z,69.94
2018-09-29T07:45:11.048Z,69.97
2018-09-29T07:47:39.590Z,69.73
2018-09-29T07:50:08.363Z,69.37
2018-09-29T07:52:37.095Z,69.82
2018-09-29T07:55:05.878Z,69.34
2018-09-29T07:57:34.431Z,69.69
2018-09-29T08:00:02.994Z,68.25
2018-09-29T08:02:31.853Z,68.78
2018-09-29T08:05:00.347Z,68.29
2018-09-29T08:07:28.899Z,67.43
2018-09-29T08:09:57.750Z,66.98
2018-09-29T08:12:26.373Z,67.50
2018-09-29T08:14:54.897Z,67.66
2018-09-29T08:17:23.523Z,67.19
2018-09-29T08:19:52.970Z,67.05
2018-09-29T08:22:21.507Z,66.80
2018-09-29T08:24:50.278Z,67.70
2018-09-29T08:27:18.955Z,66.69
2018-09-29T08:29:47.379Z,66.93
2018-09-29T08:32:16.061Z,65.85
2018-09-29T08:34:44.475Z,66.14
2018-09-29T08:37:13.040Z,65.83
2018-09-29T08:39:41.810Z,65.15
2018-09-29T08:42:10.525Z,65.42
2018-09-29T08:44:39.094Z,64.84
2018-09-29T08:47:07.787Z,64.27
2018-09-29T08:49:36.360Z,63.94
2018-09-29T08:52:05.059Z,64.02
2018-09-29T08:54:33.916Z,63.00
2018-09-29T08:57:02.467Z,62.57
2018-09-29T08:59:30.925Z,63.64
2018-09-29T09:02:01.117Z,62.51
2018-09-29T09:04:30.032Z,62.24
2018-09-29T09:06:58.523Z,62.30
2018-09-29T09:09:27.054Z,62.33
2018-09-29T09:11:55.517Z,61.99
2018-09-29T09:14:24.020Z,61.83
2018-09-29T09:16:52.578Z,60.12
2018-09-29T09:19:21.091Z,61.21
2018-09-29T09:21:49.591Z,61.62
2018-09-29T09:24:18.245Z,60.30
2018-09-29T09:26:46.758Z,59.50
2018-09-29T09:29:15.383Z,59.96
2018-09-29T09:31:43.951Z,59.29
2018-09-29T09:34:12.526Z,58.36
2018-09-29T09:36:41.099Z,58.74
2018-09-29T09:39:11.075Z,58.36
2018-09-29T09:41:40.060Z,57.33
2018-09-29T09:44:09.303Z,57.48
2018-09-29T09:46:37.755Z,56.68
2018-09-29T09:51:42.139Z,56.74
2018-09-29T09:54:10.551Z,56.27
2018-09-29T09:56:38.957Z,55.90
2018-09-29T09:59:07.826Z,54.95
2018-09-29T10:01:40.434Z,55.20
2018-09-29T10:04:09.162Z,54.05
2018-09-29T10:06:37.649Z,53.65
2018-09-29T10:09:09.559Z,53.82
2018-09-29T10:11:38.179Z,54.38
2018-09-29T10:14:06.975Z,53.16
2018-09-29T10:16:35.916Z,52.03
2018-09-29T10:19:05.271Z,52.97
2018-09-29T10:21:33.760Z,52.34
2018-09-29T10:24:02.726Z,51.32
2018-09-29T10:26:31.277Z,51.60
2018-09-29T10:28:59.724Z,50.93
2018-09-29T10:31:28.487Z,51.32
2018-09-29T10:33:56.888Z,51.01
2018-09-29T10:36:25.447Z,50.73
2018-09-29T10:38:53.960Z,50.40
2018-09-29T10:41:22.403Z,50.47
2018-09-29T10:43:50.891Z,48.86
2018-09-29T10:46:19.554Z,49.65
2018-09-29T10:48:47.979Z,49.59
2018-09-29T10:51:16.486Z,47.99
2018-09-29T10:53:45.007Z,48.06
2018-09-29T10:56:13.472Z,48.29
2018-09-29T10:58:41.868Z,47.46
2018-09-29T11:01:10.407Z,47.05
2018-09-29T11:03:38.955Z,46.70
2018-09-29T11:06:07.458Z,47.23
2018-09-29T11:08:36.669Z,47.44
2018-09-29T11:11:05.343Z,47.96
2018-09-29T11:13:33.864Z,48.38
2018-09-29T11:16:02.365Z,47.33
2018-09-29T11:18:30.817Z,47.46
2018-09-29T11:20:59.342Z,46.79
2018-09-29T11:23:27.987Z,48.02
2018-09-29T11:25:57.168Z,47.47
2018-09-29T11:28:25.673Z,46.95
2018-09-29T11:30:54.254Z,47.30
2018-09-29T11:33:22.810Z,48.03
2018-09-29T11:35:51.298Z,47.83
2018-09-29T11:38:19.853Z,48.49
2018-09-29T11:40:48.326Z,46.86
2018-09-29T11:43:16.814Z,47.67
2018-09-29T11:45:45.326Z,46.76
2018-09-29T11:48:13.835Z,46.69
2018-09-29T11:50:42.437Z,46.18
2018-09-29T11:53:11.015Z,46.48
2018-09-29T11:55:39.462Z,47.74
2018-09-29T11:58:08.099Z,47.64
2018-09-29T12:00:36.562Z,47.11
2018-09-29T12:03:05.063Z,46.15
2018-09-29T12:05:33.472Z,45.92
2018-09-29T12:08:02.054Z,46.06
2018-09-29T12:10:30.523Z,44.93
2018-09-29T12:12:59.003Z,45.19
2018-09-29T12:15:27.498Z,44.96
2018-09-29T12:17:56.012Z,45.57
2018-09-29T12:20:24.518Z,44.13
2018-09-29T12:22:52.971Z,45.39
2018-09-29T12:25:21.482Z,44.86
2018-09-29T12:27:50.433Z,45.01
2018-09-29T12:30:19.004Z,44.88
2018-09-29T12:32:47.542Z,44.21
2018-09-29T12:35:16.017Z,44.59
2018-09-29T12:37:44.613Z,44.97
2018-09-29T12:40:13.095Z,45.42
2018-09-29T12:42:41.724Z,44.76
2018-09-29T12:45:10.357Z,44.09
2018-09-29T12:47:38.808Z,44.36
2018-09-29T12:50:07.613Z,44.57
2018-09-29T12:52:36.231Z,44.25
2018-09-29T12:55:04.809Z,44.57
2018-09-29T12:57:33.382Z,43.54
2018-09-29T13:00:07.893Z,43.05
2018-09-29T13:02:36.755Z,44.16
2018-09-29T13:05:05.435Z,42.40
2018-09-29T13:07:33.911Z,44.12
2018-09-29T13:10:02.311Z,42.60
2018-09-29T13:12:30.706Z,42.59
2018-09-29T13:14:59.223Z,42.42
2018-09-29T13:17:27.755Z,42.95
2018-09-29T13:19:56.286Z,43.21
2018-09-29T13:22:24.927Z,42.88
2018-09-29T13:24:53.346Z,43.27
2018-09-29T13:27:21.767Z,44.06
2018-09-29T13:29:50.204Z,44.47
2018-09-29T13:32:18.654Z,44.93
2018-09-29T13:34:53.533Z,44.09
2018-09-29T13:37:23.576Z,44.38
2018-09-29T13:39:52.227Z,43.22
2018-09-29T13:42:20.722Z,42.76
2018-09-29T13:44:49.127Z,43.62
2018-09-29T13:47:17.586Z,43.50
2018-09-29T13:49:46.259Z,44.30
2018-09-29T13:52:14.693Z,43.21
2018-09-29T13:54:43.184Z,42.79
2018-09-29T13:57:11.659Z,42.59
2018-09-29T13:59:40.206Z,41.49
2018-09-29T14:02:08.639Z,41.99
2018-09-29T14:04:37.155Z,43.43
2018-09-29T14:07:07.416Z,43.44
2018-09-29T14:09:36.250Z,43.11
2018-09-29T14:12:05.315Z,43.33
2018-09-29T14:14:34.592Z,42.39
2018-09-29T14:17:03.022Z,42.13
2018-09-29T14:19:35.445Z,41.93
2018-09-29T14:22:04.056Z,42.81
2018-09-29T14:24:38.298Z,42.44
2018-09-29T14:27:06.811Z,43.50
2018-09-29T14:29:40.270Z,41.99
2018-09-29T14:32:10.035Z,42.36
2018-09-29T14:34:42.733Z,41.77
2018-09-29T14:37:18.620Z,41.03
2018-09-29T14:39:53.138Z,41.35
2018-09-29T14:42:23.497Z,41.16
2018-09-29T14:44:58.740Z,42.18
2018-09-29T14:47:28.632Z,40.26
2018-09-29T14:49:57.601Z,40.36
2018-09-29T14:52:26.203Z,40.57
2018-09-29T14:54:54.638Z,40.00
2018-09-29T14:57:25.435Z,40.22
2018-09-29T14:59:53.932Z,40.75
2018-09-29T15:02:23.641Z,41.55
2018-09-29T15:04:52.227Z,41.90
2018-09-29T15:07:20.935Z,41.66
2018-09-29T15:09:49.432Z,41.24
2018-09-29T15:12:18.017Z,41.88
2018-09-29T15:14:47.146Z,41.05
2018-09-29T15:17:15.643Z,40.78
2018-09-29T15:19:44.132Z,41.72
2018-09-29T15:22:12.627Z,41.74
2018-09-29T15:24:41.106Z,41.79
2018-09-29T15:27:11.379Z,42.04
2018-09-29T15:29:39.958Z,42.74
2018-09-29T15:32:08.450Z,42.60
2018-09-29T15:34:37.039Z,42.79
2018-09-29T15:37:05.628Z,40.79
2018-09-29T15:39:34.102Z,39.89
2018-09-29T15:42:02.523Z,39.38
2018-09-29T15:44:31.018Z,40.29
2018-09-29T15:46:59.639Z,40.08
2018-09-29T15:49:29.133Z,40.00
2018-09-29T15:51:57.590Z,39.96
2018-09-29T15:54:26.111Z,39.66
2018-09-29T15:56:54.591Z,39.83
2018-09-29T15:59:23.355Z,39.41
2018-09-29T16:01:51.887Z,40.06
2018-09-29T16:04:20.903Z,39.55
2018-09-29T16:06:49.395Z,40.52
2018-09-29T16:09:17.883Z,40.33
2018-09-29T16:11:46.404Z,40.53
2018-09-29T16:14:15.032Z,40.79
2018-09-29T16:16:43.501Z,40.72
2018-09-29T16:19:12.081Z,40.94
2018-09-29T16:21:40.767Z,41.13
2018-09-29T16:24:09.190Z,40.40
2018-09-29T16:26:38.590Z,40.96
2018-09-29T16:29:07.072Z,41.22
2018-09-29T16:31:35.565Z,41.89
2018-09-29T16:34:04.056Z,42.28
2018-09-29T16:36:32.582Z,44.08
2018-09-29T16:39:01.048Z,43.29
2018-09-29T16:41:29.547Z,44.14
2018-09-29T16:43:58.055Z,45.01
2018-09-29T16:46:26.515Z,45.62
2018-09-29T16:48:55.148Z,45.93
2018-09-29T16:51:23.792Z,47.93
2018-09-29T16:53:52.369Z,48.54
2018-09-29T16:56:20.803Z,50.30
2018-09-29T16:58:49.369Z,51.08
2018-09-29T17:01:17.890Z,51.92
2018-09-29T17:03:46.459Z,51.74
2018-09-29T17:06:15.160Z,53.52
2018-09-29T17:08:44.860Z,53.91
2018-09-29T17:11:13.747Z,54.92
2018-09-29T17:13:42.379Z,55.57
2018-09-29T17:16:10.939Z,56.05
2018-09-29T17:18:39.390Z,57.35
2018-09-29T17:21:07.871Z,58.99
2018-09-29T17:23:36.293Z,57.88
2018-09-29T17:26:04.767Z,58.30
2018-09-29T17:28:33.240Z,58.30
2018-09-29T17:31:01.675Z,58.12
2018-09-29T17:33:30.424Z,57.93
2018-09-29T17:35:59.254Z,58.17
2018-09-29T17:38:27.787Z,61.01
2018-09-29T17:40:56.264Z,62.54
2018-09-29T17:43:24.948Z,62.40
2018-09-29T17:45:53.768Z,61.61
2018-09-29T17:48:22.275Z,60.69
2018-09-29T17:50:50.779Z,61.59
2018-09-29T17:53:19.463Z,60.93
2018-09-29T17:55:48.244Z,61.34
2018-09-29T17:58:17.952Z,63.02
2018-09-29T18:00:46.667Z,64.07
2018-09-29T18:03:15.587Z,63.84
2018-09-29T18:05:44.239Z,63.01
2018-09-29T18:08:12.773Z,64.32
2018-09-29T18:10:42.282Z,64.96
2018-09-29T18:13:10.955Z,65.63
2018-09-29T18:15:39.674Z,66.41
2018-09-29T18:18:08.252Z,66.49
2018-09-29T18:20:36.938Z,67.67
2018-09-29T18:23:05.504Z,68.41
2018-09-29T18:25:34.772Z,68.29
2018-09-29T18:28:03.690Z,68.75
2018-09-29T18:30:32.708Z,68.63
2018-09-29T18:33:02.254Z,68.86
2018-09-29T18:35:30.775Z,68.84
2018-09-29T18:37:59.465Z,68.13
2018-09-29T18:40:27.977Z,67.46
2018-09-29T18:42:57.036Z,67.13
2018-09-29T18:45:25.636Z,67.35
2018-09-29T18:47:54.495Z,68.62
2018-09-29T18:50:23.275Z,69.97
2018-09-29T18:52:51.871Z,69.95
2018-09-29T18:55:21.333Z,69.29
2018-09-29T18:57:49.981Z,69.23
2018-09-29T19:00:18.560Z,68.83
2018-09-29T19:02:47.111Z,68.38
2018-09-29T19:05:17.210Z,70.15
2018-09-29T19:07:45.848Z,70.89
2018-09-29T19:10:14.350Z,70.80
2018-09-29T19:12:43.022Z,70.19
2018-09-29T19:15:11.492Z,71.42
2018-09-29T19:17:40.459Z,71.99
2018-09-29T19:20:09.434Z,71.56
2018-09-29T19:22:38.252Z,72.59
2018-09-29T19:25:06.907Z,72.16
2018-09-29T19:27:35.609Z,72.30
2018-09-29T19:30:04.185Z,72.26
2018-09-29T19:32:32.795Z,72.78
2018-09-29T19:35:02.223Z,72.35
2018-09-29T19:37:30.974Z,72.73
2018-09-29T19:40:00.015Z,73.08
2018-09-29T19:42:29.336Z,73.85
2018-09-29T19:44:57.895Z,74.26
2018-09-29T19:47:26.850Z,74.32
2018-09-29T19:49:55.995Z,74.85
2018-09-29T19:52:24.631Z,74.52
2018-09-29T19:54:53.175Z,74.70
2018-09-29T19:57:21.797Z,75.43
2018-09-29T19:59:50.293Z,75.63
2018-09-29T20:02:18.856Z,76.53
2018-09-29T20:04:47.408Z,76.45
2018-09-29T20:07:15.966Z,77.09
2018-09-29T20:09:44.450Z,76.36
2018-09-29T20:12:13.811Z,76.84
2018-09-29T20:14:42.815Z,78.42
2018-09-29T20:17:11.293Z,78.50
2018-09-29T20:19:40.005Z,78.96
2018-09-29T20:22:09.495Z,79.53
2018-09-29T20:24:38.307Z,79.28
2018-09-29T20:27:07.139Z,79.19
2018-09-29T20:29:35.654Z,78.81
2018-09-29T20:32:04.148Z,78.69
2018-09-29T20:34:32.985Z,79.31
2018-09-29T20:37:01.949Z,79.16
2018-09-29T20:39:30.447Z,79.64
2018-09-29T20:41:59.039Z,79.57
2018-09-29T20:44:28.228Z,80.03
2018-09-29T20:46:56.779Z,80.18
2018-09-29T20:49:25.854Z,80.19
2018-09-29T20:51:54.375Z,80.30
2018-09-29T20:54:23.280Z,81.06
2018-09-29T20:56:52.535Z,81.67
2018-09-29T20:59:21.236Z,82.37
2018-09-29T21:01:49.995Z,82.04
2018-09-29T21:04:18.552Z,82.02
2018-09-29T21:06:47.998Z,81.78
2018-09-29T21:09:16.603Z,82.20
2018-09-29T21:11:45.071Z,82.89
2018-09-29T21:14:13.533Z,83.24
2018-09-29T21:16:42.505Z,81.83
2018-09-29T21:19:11.690Z,83.62
2018-09-29T21:21:40.369Z,83.27
2018-09-29T21:24:08.831Z,83.96
2018-09-29T21:26:37.508Z,83.96
2018-09-29T21:29:05.965Z,83.77
2018-09-29T21:31:34.832Z,83.25
2018-09-29T21:34:03.595Z,83.30
2018-09-29T21:36:32.125Z,83.45
2018-09-29T21:39:00.898Z,83.45
2018-09-29T21:41:29.504Z,83.77
2018-09-29T21:43:58.077Z,84.39
2018-09-29T21:46:26.523Z,83.93
2018-09-29T21:48:54.994Z,83.78
2018-09-29T21:51:23.546Z,84.38
2018-09-29T21:53:52.061Z,84.82
2018-09-29T21:56:20.557Z,84.54
2018-09-29T21:58:49.059Z,83.20
2018-09-29T22:01:37.347Z,83.60
2018-09-29T22:04:05.771Z,84.10
2018-09-29T22:06:34.274Z,84.41
2018-09-29T22:09:02.823Z,84.89
2018-09-29T22:11:31.374Z,84.78
2018-09-29T22:13:59.788Z,83.98
2018-09-29T22:16:28.344Z,83.22
2018-09-29T22:18:56.818Z,84.64
2018-09-29T22:21:25.435Z,85.97
2018-09-29T22:23:53.982Z,86.00
2018-09-29T22:26:22.538Z,86.29
2018-09-29T22:28:50.953Z,86.69
2018-09-29T22:31:19.415Z,85.74
2018-09-29T22:33:47.895Z,85.53
2018-09-29T22:36:16.378Z,85.60
2018-09-29T22:38:44.884Z,85.63
2018-09-29T22:41:13.335Z,84.87
2018-09-29T22:43:41.866Z,85.14
2018-09-29T22:46:10.386Z,85.24
2018-09-29T22:48:38.867Z,85.23
2018-09-29T22:51:07.350Z,85.51
2018-09-29T22:53:35.759Z,85.27
2018-09-29T22:56:04.223Z,86.35
2018-09-29T22:58:32.726Z,86.51
2018-09-29T23:01:01.231Z,86.04
2018-09-29T23:03:29.706Z,86.15
2018-09-29T23:05:58.216Z,85.62
2018-09-29T23:08:26.650Z,85.27
2018-09-29T23:10:55.131Z,85.67
2018-09-29T23:13:23.643Z,85.11
2018-09-29T23:15:52.170Z,85.13
2018-09-29T23:18:20.666Z,85.15
2018-09-29T23:20:49.113Z,85.24
2018-09-29T23:23:17.591Z,85.21
2018-09-29T23:25:46.102Z,86.61
2018-09-29T23:28:14.552Z,86.78
2018-09-29T23:30:43.085Z,85.71
2018-09-29T23:33:11.533Z,85.12
2018-09-29T23:35:40.007Z,86.07
2018-09-29T23:38:08.543Z,86.48
2018-09-29T23:40:37.018Z,85.81
2018-09-29T23:43:05.502Z,86.97
2018-09-29T23:45:34.035Z,87.72
2018-09-29T23:48:02.463Z,87.68
2018-09-29T23:50:30.856Z,86.44
2018-09-29T23:52:59.406Z,85.96
2018-09-29T23:55:27.915Z,86.19
2018-09-29T23:57:56.371Z,86.96
